sensor_id;sensor_type;location;lat;lon;timestamp;temperature;humidity
20246;DHT22;10281;54.406;18.556;2024-01-30T00:02:23;3.90;99.90
20246;DHT22;10281;54.406;18.556;2024-01-30T00:04:50;3.90;99.90
20246;DHT22;10281;54.406;18.556;2024-01-30T00:07:17;3.90;99.90
20246;DHT22;10281;54.406;18.556;2024-01-30T00:09:46;3.80;99.90
20246;DHT22;10281;54.406;18.556;2024-01-30T00:12:14;3.70;99.90
20246;DHT22;10281;54.406;18.556;2024-01-30T00:14:42;3.70;99.90
20246;DHT22;10281;54.406;18.556;2024-01-30T00:17:09;3.70;99.90
20246;DHT22;10281;54.406;18.556;2024-01-30T00:19:36;3.60;99.90
20246;DHT22;10281;54.406;18.556;2024-01-30T00:22:03;3.50;99.90
20246;DHT22;10281;54.406;18.556;2024-01-30T00:24:30;3.50;99.90
20246;DHT22;10281;54.406;18.556;2024-01-30T00:26:57;3.50;99.90
20246;DHT22;10281;54.406;18.556;2024-01-30T00:29:23;3.50;99.90
20246;DHT22;10281;54.406;18.556;2024-01-30T00:31:51;3.40;99.90
20246;DHT22;10281;54.406;18.556;2024-01-30T00:34:18;3.30;99.90
20246;DHT22;10281;54.406;18.556;2024-01-30T00:36:45;3.20;99.90
20246;DHT22;10281;54.406;18.556;2024-01-30T00:39:11;3.20;99.90
20246;DHT22;10281;54.406;18.556;2024-01-30T00:41:38;3.20;99.90
20246;DHT22;10281;54.406;18.556;2024-01-30T00:44:05;3.20;99.90
20246;DHT22;10281;54.406;18.556;2024-01-30T00:46:31;3.20;99.90
20246;DHT22;10281;54.406;18.556;2024-01-30T00:48:58;3.20;99.90
20246;DHT22;10281;54.406;18.556;2024-01-30T00:51:24;3.20;99.90
20246;DHT22;10281;54.406;18.556;2024-01-30T00:53:51;3.10;99.90
20246;DHT22;10281;54.406;18.556;2024-01-30T00:56:19;3.10;99.90
20246;DHT22;10281;54.406;18.556;2024-01-30T00:58:45;3.00;99.90
20246;DHT22;10281;54.406;18.556;2024-01-30T01:01:12;3.00;99.90
20246;DHT22;10281;54.406;18.556;2024-01-30T01:03:39;2.90;99.90
20246;DHT22;10281;54.406;18.556;2024-01-30T01:06:06;2.90;99.90
20246;DHT22;10281;54.406;18.556;2024-01-30T01:08:33;2.90;99.90
20246;DHT22;10281;54.406;18.556;2024-01-30T01:11:00;2.80;99.90
20246;DHT22;10281;54.406;18.556;2024-01-30T01:13:26;2.80;99.90
20246;DHT22;10281;54.406;18.556;2024-01-30T01:15:53;2.70;99.90
20246;DHT22;10281;54.406;18.556;2024-01-30T01:18:19;2.60;99.90
20246;DHT22;10281;54.406;18.556;2024-01-30T01:20:46;2.60;99.90
20246;DHT22;10281;54.406;18.556;2024-01-30T01:23:13;2.60;99.90
20246;DHT22;10281;54.406;18.556;2024-01-30T01:25:40;2.60;99.90
20246;DHT22;10281;54.406;18.556;2024-01-30T01:28:06;2.60;99.90
20246;DHT22;10281;54.406;18.556;2024-01-30T01:30:33;2.60;99.90
20246;DHT22;10281;54.406;18.556;2024-01-30T01:33:00;2.60;99.90
20246;DHT22;10281;54.406;18.556;2024-01-30T01:35:28;2.60;99.90
20246;DHT22;10281;54.406;18.556;2024-01-30T01:37:55;2.50;99.90
20246;DHT22;10281;54.406;18.556;2024-01-30T01:40:23;2.50;99.90
20246;DHT22;10281;54.406;18.556;2024-01-30T01:42:50;2.50;99.90
20246;DHT22;10281;54.406;18.556;2024-01-30T01:45:19;2.50;99.90
20246;DHT22;10281;54.406;18.556;2024-01-30T01:47:49;2.50;99.90
20246;DHT22;10281;54.406;18.556;2024-01-30T01:50:17;2.40;99.90
20246;DHT22;10281;54.406;18.556;2024-01-30T01:52:46;2.40;99.90
20246;DHT22;10281;54.406;18.556;2024-01-30T01:55:14;2.40;99.90
20246;DHT22;10281;54.406;18.556;2024-01-30T01:57:42;2.30;99.90
20246;DHT22;10281;54.406;18.556;2024-01-30T02:00:10;2.30;99.90
20246;DHT22;10281;54.406;18.556;2024-01-30T02:02:36;2.30;99.90
20246;DHT22;10281;54.406;18.556;2024-01-30T02:05:04;2.20;99.90
20246;DHT22;10281;54.406;18.556;2024-01-30T02:07:31;2.20;99.90
20246;DHT22;10281;54.406;18.556;2024-01-30T02:09:57;2.20;99.90
20246;DHT22;10281;54.406;18.556;2024-01-30T02:12:24;2.20;99.90
20246;DHT22;10281;54.406;18.556;2024-01-30T02:14:50;2.10;99.90
20246;DHT22;10281;54.406;18.556;2024-01-30T02:17:17;2.10;99.90
20246;DHT22;10281;54.406;18.556;2024-01-30T02:19:44;2.00;99.90
20246;DHT22;10281;54.406;18.556;2024-01-30T02:22:11;2.00;99.90
20246;DHT22;10281;54.406;18.556;2024-01-30T02:24:37;2.00;99.90
20246;DHT22;10281;54.406;18.556;2024-01-30T02:27:04;2.00;99.90
20246;DHT22;10281;54.406;18.556;2024-01-30T02:29:31;1.90;99.90
20246;DHT22;10281;54.406;18.556;2024-01-30T02:31:58;1.90;99.90
20246;DHT22;10281;54.406;18.556;2024-01-30T02:34:24;1.90;99.90
20246;DHT22;10281;54.406;18.556;2024-01-30T02:36:51;1.90;99.90
20246;DHT22;10281;54.406;18.556;2024-01-30T02:39:17;1.90;99.90
20246;DHT22;10281;54.406;18.556;2024-01-30T02:41:44;1.80;99.90
20246;DHT22;10281;54.406;18.556;2024-01-30T02:44:11;1.80;99.90
20246;DHT22;10281;54.406;18.556;2024-01-30T02:46:37;1.70;99.90
20246;DHT22;10281;54.406;18.556;2024-01-30T02:49:04;1.70;99.90
20246;DHT22;10281;54.406;18.556;2024-01-30T02:51:30;1.70;99.90
20246;DHT22;10281;54.406;18.556;2024-01-30T02:53:57;1.70;99.90
20246;DHT22;10281;54.406;18.556;2024-01-30T02:56:24;1.70;99.90
20246;DHT22;10281;54.406;18.556;2024-01-30T02:58:50;1.60;99.90
20246;DHT22;10281;54.406;18.556;2024-01-30T03:01:17;1.70;99.90
20246;DHT22;10281;54.406;18.556;2024-01-30T03:03:44;1.60;99.90
20246;DHT22;10281;54.406;18.556;2024-01-30T03:06:10;1.60;99.90
20246;DHT22;10281;54.406;18.556;2024-01-30T03:08:37;1.60;99.90
20246;DHT22;10281;54.406;18.556;2024-01-30T03:11:03;1.60;99.90
20246;DHT22;10281;54.406;18.556;2024-01-30T03:13:30;1.50;99.90
20246;DHT22;10281;54.406;18.556;2024-01-30T03:15:57;1.50;99.90
20246;DHT22;10281;54.406;18.556;2024-01-30T03:18:23;1.50;99.90
20246;DHT22;10281;54.406;18.556;2024-01-30T03:20:50;1.50;99.90
20246;DHT22;10281;54.406;18.556;2024-01-30T03:23:16;1.40;99.90
20246;DHT22;10281;54.406;18.556;2024-01-30T03:25:43;1.40;99.90
20246;DHT22;10281;54.406;18.556;2024-01-30T03:28:09;1.40;99.90
20246;DHT22;10281;54.406;18.556;2024-01-30T03:30:36;1.40;99.90
20246;DHT22;10281;54.406;18.556;2024-01-30T03:33:03;1.40;99.90
20246;DHT22;10281;54.406;18.556;2024-01-30T03:35:29;1.30;99.90
20246;DHT22;10281;54.406;18.556;2024-01-30T03:37:56;1.30;99.90
20246;DHT22;10281;54.406;18.556;2024-01-30T03:40:23;1.30;99.90
20246;DHT22;10281;54.406;18.556;2024-01-30T03:42:49;1.20;99.90
20246;DHT22;10281;54.406;18.556;2024-01-30T03:45:16;1.20;99.90
20246;DHT22;10281;54.406;18.556;2024-01-30T03:47:44;1.20;99.90
20246;DHT22;10281;54.406;18.556;2024-01-30T03:50:11;1.20;99.90
20246;DHT22;10281;54.406;18.556;2024-01-30T03:52:38;1.20;99.90
20246;DHT22;10281;54.406;18.556;2024-01-30T03:55:05;1.20;99.90
20246;DHT22;10281;54.406;18.556;2024-01-30T03:57:32;1.20;99.90
20246;DHT22;10281;54.406;18.556;2024-01-30T03:59:58;1.30;99.90
20246;DHT22;10281;54.406;18.556;2024-01-30T04:02:25;1.30;99.90
20246;DHT22;10281;54.406;18.556;2024-01-30T04:04:52;1.30;99.90
20246;DHT22;10281;54.406;18.556;2024-01-30T04:07:18;1.30;99.90
20246;DHT22;10281;54.406;18.556;2024-01-30T04:09:45;1.30;99.90
20246;DHT22;10281;54.406;18.556;2024-01-30T04:12:11;1.30;99.90
20246;DHT22;10281;54.406;18.556;2024-01-30T04:14:39;1.30;99.90
20246;DHT22;10281;54.406;18.556;2024-01-30T04:17:05;1.30;99.90
20246;DHT22;10281;54.406;18.556;2024-01-30T04:19:32;1.30;99.90
20246;DHT22;10281;54.406;18.556;2024-01-30T04:21:58;1.20;99.90
20246;DHT22;10281;54.406;18.556;2024-01-30T04:24:25;1.20;99.90
20246;DHT22;10281;54.406;18.556;2024-01-30T04:26:52;1.20;99.90
20246;DHT22;10281;54.406;18.556;2024-01-30T04:29:18;1.20;99.90
20246;DHT22;10281;54.406;18.556;2024-01-30T04:31:46;1.20;99.90
20246;DHT22;10281;54.406;18.556;2024-01-30T04:34:12;1.20;99.90
20246;DHT22;10281;54.406;18.556;2024-01-30T04:36:39;1.20;99.90
20246;DHT22;10281;54.406;18.556;2024-01-30T04:39:05;1.20;99.90
20246;DHT22;10281;54.406;18.556;2024-01-30T04:41:32;1.20;99.90
20246;DHT22;10281;54.406;18.556;2024-01-30T04:43:59;1.20;99.90
20246;DHT22;10281;54.406;18.556;2024-01-30T04:46:26;1.20;99.90
20246;DHT22;10281;54.406;18.556;2024-01-30T04:48:54;1.20;99.90
20246;DHT22;10281;54.406;18.556;2024-01-30T04:51:20;1.20;99.90
20246;DHT22;10281;54.406;18.556;2024-01-30T04:53:47;1.20;99.90
20246;DHT22;10281;54.406;18.556;2024-01-30T04:56:14;1.10;99.90
20246;DHT22;10281;54.406;18.556;2024-01-30T04:58:40;1.10;99.90
20246;DHT22;10281;54.406;18.556;2024-01-30T05:01:07;1.00;99.90
20246;DHT22;10281;54.406;18.556;2024-01-30T05:03:34;1.10;99.90
20246;DHT22;10281;54.406;18.556;2024-01-30T05:06:01;1.10;99.90
20246;DHT22;10281;54.406;18.556;2024-01-30T05:08:28;1.10;99.90
20246;DHT22;10281;54.406;18.556;2024-01-30T05:10:55;1.10;99.90
20246;DHT22;10281;54.406;18.556;2024-01-30T05:13:22;1.10;99.90
20246;DHT22;10281;54.406;18.556;2024-01-30T05:15:48;1.00;99.90
20246;DHT22;10281;54.406;18.556;2024-01-30T05:18:15;1.00;99.90
20246;DHT22;10281;54.406;18.556;2024-01-30T05:20:41;1.00;99.90
20246;DHT22;10281;54.406;18.556;2024-01-30T05:23:08;1.00;99.90
20246;DHT22;10281;54.406;18.556;2024-01-30T05:25:35;1.00;99.90
20246;DHT22;10281;54.406;18.556;2024-01-30T05:28:02;1.00;99.90
20246;DHT22;10281;54.406;18.556;2024-01-30T05:30:29;1.00;99.90
20246;DHT22;10281;54.406;18.556;2024-01-30T05:32:55;1.10;99.90
20246;DHT22;10281;54.406;18.556;2024-01-30T05:35:22;1.10;99.90
20246;DHT22;10281;54.406;18.556;2024-01-30T05:37:49;1.10;99.90
20246;DHT22;10281;54.406;18.556;2024-01-30T05:40:16;1.10;99.90
20246;DHT22;10281;54.406;18.556;2024-01-30T05:42:43;1.20;99.90
20246;DHT22;10281;54.406;18.556;2024-01-30T05:45:09;1.20;99.90
20246;DHT22;10281;54.406;18.556;2024-01-30T05:47:36;1.20;99.90
20246;DHT22;10281;54.406;18.556;2024-01-30T05:50:03;1.20;99.90
20246;DHT22;10281;54.406;18.556;2024-01-30T05:52:29;1.20;99.90
20246;DHT22;10281;54.406;18.556;2024-01-30T05:54:56;1.30;99.90
20246;DHT22;10281;54.406;18.556;2024-01-30T05:57:23;1.30;99.90
20246;DHT22;10281;54.406;18.556;2024-01-30T05:59:49;1.30;99.90
20246;DHT22;10281;54.406;18.556;2024-01-30T06:02:17;1.30;99.90
20246;DHT22;10281;54.406;18.556;2024-01-30T06:04:44;1.30;99.90
20246;DHT22;10281;54.406;18.556;2024-01-30T06:07:11;1.40;99.90
20246;DHT22;10281;54.406;18.556;2024-01-30T06:09:37;1.40;99.90
20246;DHT22;10281;54.406;18.556;2024-01-30T06:12:05;1.30;99.90
20246;DHT22;10281;54.406;18.556;2024-01-30T06:14:32;1.30;99.90
20246;DHT22;10281;54.406;18.556;2024-01-30T06:16:59;1.30;99.90
20246;DHT22;10281;54.406;18.556;2024-01-30T06:19:26;1.40;99.90
20246;DHT22;10281;54.406;18.556;2024-01-30T06:21:52;1.40;99.90
20246;DHT22;10281;54.406;18.556;2024-01-30T06:24:19;1.30;99.90
20246;DHT22;10281;54.406;18.556;2024-01-30T06:26:46;1.40;99.90
20246;DHT22;10281;54.406;18.556;2024-01-30T06:29:12;1.40;99.90
20246;DHT22;10281;54.406;18.556;2024-01-30T06:31:41;1.40;99.90
20246;DHT22;10281;54.406;18.556;2024-01-30T06:34:08;1.40;99.90
20246;DHT22;10281;54.406;18.556;2024-01-30T06:36:35;1.50;99.90
20246;DHT22;10281;54.406;18.556;2024-01-30T06:39:03;1.50;99.90
20246;DHT22;10281;54.406;18.556;2024-01-30T06:41:30;1.50;99.90
20246;DHT22;10281;54.406;18.556;2024-01-30T06:43:57;1.50;99.90
20246;DHT22;10281;54.406;18.556;2024-01-30T06:46:23;1.60;99.90
20246;DHT22;10281;54.406;18.556;2024-01-30T06:48:50;1.60;99.90
20246;DHT22;10281;54.406;18.556;2024-01-30T06:51:16;1.60;99.90
20246;DHT22;10281;54.406;18.556;2024-01-30T06:53:43;1.60;99.90
20246;DHT22;10281;54.406;18.556;2024-01-30T06:56:10;1.60;99.90
20246;DHT22;10281;54.406;18.556;2024-01-30T06:58:36;1.60;99.90
20246;DHT22;10281;54.406;18.556;2024-01-30T07:01:03;1.60;99.90
20246;DHT22;10281;54.406;18.556;2024-01-30T07:03:30;1.60;99.90
20246;DHT22;10281;54.406;18.556;2024-01-30T07:05:56;1.70;99.90
20246;DHT22;10281;54.406;18.556;2024-01-30T07:08:23;1.70;99.90
20246;DHT22;10281;54.406;18.556;2024-01-30T07:10:50;1.60;99.90
20246;DHT22;10281;54.406;18.556;2024-01-30T07:13:16;1.70;99.90
20246;DHT22;10281;54.406;18.556;2024-01-30T07:15:43;1.70;99.90
20246;DHT22;10281;54.406;18.556;2024-01-30T07:18:10;1.80;99.90
20246;DHT22;10281;54.406;18.556;2024-01-30T07:20:36;1.80;99.90
20246;DHT22;10281;54.406;18.556;2024-01-30T07:23:04;1.90;99.90
20246;DHT22;10281;54.406;18.556;2024-01-30T07:25:30;2.00;99.90
20246;DHT22;10281;54.406;18.556;2024-01-30T07:27:57;2.00;99.90
20246;DHT22;10281;54.406;18.556;2024-01-30T07:30:23;2.10;99.90
20246;DHT22;10281;54.406;18.556;2024-01-30T07:32:50;2.10;99.90
20246;DHT22;10281;54.406;18.556;2024-01-30T07:35:17;2.10;99.90
20246;DHT22;10281;54.406;18.556;2024-01-30T07:37:43;2.20;99.90
20246;DHT22;10281;54.406;18.556;2024-01-30T07:40:10;2.20;99.90
20246;DHT22;10281;54.406;18.556;2024-01-30T07:42:36;2.30;99.90
20246;DHT22;10281;54.406;18.556;2024-01-30T07:45:04;2.30;99.90
20246;DHT22;10281;54.406;18.556;2024-01-30T07:47:30;2.40;99.90
20246;DHT22;10281;54.406;18.556;2024-01-30T07:49:57;2.40;99.90
20246;DHT22;10281;54.406;18.556;2024-01-30T07:52:24;2.50;99.90
20246;DHT22;10281;54.406;18.556;2024-01-30T07:54:51;2.50;99.90
20246;DHT22;10281;54.406;18.556;2024-01-30T07:57:18;2.60;99.90
20246;DHT22;10281;54.406;18.556;2024-01-30T07:59:45;2.60;99.90
20246;DHT22;10281;54.406;18.556;2024-01-30T08:02:13;2.70;99.90
20246;DHT22;10281;54.406;18.556;2024-01-30T08:04:40;2.70;99.90
20246;DHT22;10281;54.406;18.556;2024-01-30T08:07:06;2.80;99.90
20246;DHT22;10281;54.406;18.556;2024-01-30T08:09:33;2.80;99.90
20246;DHT22;10281;54.406;18.556;2024-01-30T08:11:59;2.80;99.90
20246;DHT22;10281;54.406;18.556;2024-01-30T08:14:26;2.90;99.90
20246;DHT22;10281;54.406;18.556;2024-01-30T08:16:53;2.90;99.90
20246;DHT22;10281;54.406;18.556;2024-01-30T08:19:19;2.90;99.90
20246;DHT22;10281;54.406;18.556;2024-01-30T08:21:46;3.00;99.90
20246;DHT22;10281;54.406;18.556;2024-01-30T08:24:12;3.10;99.90
20246;DHT22;10281;54.406;18.556;2024-01-30T08:26:39;3.10;99.90
20246;DHT22;10281;54.406;18.556;2024-01-30T08:29:06;3.20;99.90
20246;DHT22;10281;54.406;18.556;2024-01-30T08:31:32;3.30;99.90
20246;DHT22;10281;54.406;18.556;2024-01-30T08:33:59;3.30;99.90
20246;DHT22;10281;54.406;18.556;2024-01-30T08:36:25;3.30;99.90
20246;DHT22;10281;54.406;18.556;2024-01-30T08:38:52;3.40;99.90
20246;DHT22;10281;54.406;18.556;2024-01-30T08:41:19;3.40;99.90
20246;DHT22;10281;54.406;18.556;2024-01-30T08:43:45;3.50;99.90
20246;DHT22;10281;54.406;18.556;2024-01-30T08:46:18;3.50;99.90
20246;DHT22;10281;54.406;18.556;2024-01-30T08:48:44;3.60;99.90
20246;DHT22;10281;54.406;18.556;2024-01-30T08:51:11;3.60;99.90
20246;DHT22;10281;54.406;18.556;2024-01-30T08:53:39;3.60;99.90
20246;DHT22;10281;54.406;18.556;2024-01-30T08:56:06;3.70;99.90
20246;DHT22;10281;54.406;18.556;2024-01-30T08:58:33;3.70;99.90
20246;DHT22;10281;54.406;18.556;2024-01-30T09:01:00;3.80;99.90
20246;DHT22;10281;54.406;18.556;2024-01-30T09:03:26;3.80;99.90
20246;DHT22;10281;54.406;18.556;2024-01-30T09:05:53;3.90;99.90
20246;DHT22;10281;54.406;18.556;2024-01-30T09:08:20;3.90;99.90
20246;DHT22;10281;54.406;18.556;2024-01-30T09:10:47;4.00;99.90
20246;DHT22;10281;54.406;18.556;2024-01-30T09:13:14;4.00;99.90
20246;DHT22;10281;54.406;18.556;2024-01-30T09:15:41;4.00;99.90
20246;DHT22;10281;54.406;18.556;2024-01-30T09:18:09;4.10;99.90
20246;DHT22;10281;54.406;18.556;2024-01-30T09:20:36;4.20;99.90
20246;DHT22;10281;54.406;18.556;2024-01-30T09:23:02;4.20;99.90
20246;DHT22;10281;54.406;18.556;2024-01-30T09:25:29;4.30;99.90
20246;DHT22;10281;54.406;18.556;2024-01-30T09:27:55;4.30;99.90
20246;DHT22;10281;54.406;18.556;2024-01-30T09:30:22;4.30;99.90
20246;DHT22;10281;54.406;18.556;2024-01-30T09:32:49;4.40;99.90
20246;DHT22;10281;54.406;18.556;2024-01-30T09:35:15;4.40;99.90
20246;DHT22;10281;54.406;18.556;2024-01-30T09:37:42;4.50;99.90
20246;DHT22;10281;54.406;18.556;2024-01-30T09:40:09;4.50;99.90
20246;DHT22;10281;54.406;18.556;2024-01-30T09:42:36;4.50;99.90
20246;DHT22;10281;54.406;18.556;2024-01-30T09:45:04;4.50;99.90
20246;DHT22;10281;54.406;18.556;2024-01-30T09:47:38;4.60;99.90
20246;DHT22;10281;54.406;18.556;2024-01-30T09:50:04;4.70;99.90
20246;DHT22;10281;54.406;18.556;2024-01-30T09:52:32;4.70;99.90
20246;DHT22;10281;54.406;18.556;2024-01-30T09:55:00;4.70;99.90
20246;DHT22;10281;54.406;18.556;2024-01-30T09:57:27;4.80;99.90
20246;DHT22;10281;54.406;18.556;2024-01-30T09:59:53;4.80;99.90
20246;DHT22;10281;54.406;18.556;2024-01-30T10:02:21;4.90;99.90
20246;DHT22;10281;54.406;18.556;2024-01-30T10:04:49;4.90;99.90
20246;DHT22;10281;54.406;18.556;2024-01-30T10:07:17;5.00;99.90
20246;DHT22;10281;54.406;18.556;2024-01-30T10:09:44;5.10;99.90
20246;DHT22;10281;54.406;18.556;2024-01-30T10:12:12;5.10;99.90
20246;DHT22;10281;54.406;18.556;2024-01-30T10:14:40;5.20;99.90
20246;DHT22;10281;54.406;18.556;2024-01-30T10:17:08;5.30;99.90
20246;DHT22;10281;54.406;18.556;2024-01-30T10:19:36;5.40;99.90
20246;DHT22;10281;54.406;18.556;2024-01-30T10:22:04;5.50;99.90
20246;DHT22;10281;54.406;18.556;2024-01-30T10:24:31;5.50;99.90
20246;DHT22;10281;54.406;18.556;2024-01-30T10:26:59;5.60;99.90
20246;DHT22;10281;54.406;18.556;2024-01-30T10:29:27;5.70;99.90
20246;DHT22;10281;54.406;18.556;2024-01-30T10:32:01;5.70;99.90
20246;DHT22;10281;54.406;18.556;2024-01-30T10:34:28;5.80;99.90
20246;DHT22;10281;54.406;18.556;2024-01-30T10:37:01;5.90;99.90
20246;DHT22;10281;54.406;18.556;2024-01-30T10:39:29;5.90;99.90
20246;DHT22;10281;54.406;18.556;2024-01-30T10:42:00;6.00;99.90
20246;DHT22;10281;54.406;18.556;2024-01-30T10:44:29;6.10;99.90
20246;DHT22;10281;54.406;18.556;2024-01-30T10:47:00;6.20;99.90
20246;DHT22;10281;54.406;18.556;2024-01-30T10:49:27;6.20;99.90
20246;DHT22;10281;54.406;18.556;2024-01-30T10:51:55;6.30;99.90
20246;DHT22;10281;54.406;18.556;2024-01-30T10:54:24;6.40;99.90
20246;DHT22;10281;54.406;18.556;2024-01-30T10:56:52;6.40;99.90
20246;DHT22;10281;54.406;18.556;2024-01-30T10:59:20;6.50;99.90
20246;DHT22;10281;54.406;18.556;2024-01-30T11:01:48;6.60;99.90
20246;DHT22;10281;54.406;18.556;2024-01-30T11:04:16;6.60;99.90
20246;DHT22;10281;54.406;18.556;2024-01-30T11:06:43;6.70;99.90
20246;DHT22;10281;54.406;18.556;2024-01-30T11:09:11;6.80;99.90
20246;DHT22;10281;54.406;18.556;2024-01-30T11:11:48;6.80;99.90
20246;DHT22;10281;54.406;18.556;2024-01-30T11:14:15;6.80;99.90
20246;DHT22;10281;54.406;18.556;2024-01-30T11:16:42;6.90;99.90
20246;DHT22;10281;54.406;18.556;2024-01-30T11:19:11;6.90;99.90
20246;DHT22;10281;54.406;18.556;2024-01-30T11:21:42;7.00;99.90
20246;DHT22;10281;54.406;18.556;2024-01-30T11:24:08;7.10;99.90
20246;DHT22;10281;54.406;18.556;2024-01-30T11:26:35;7.10;99.90
20246;DHT22;10281;54.406;18.556;2024-01-30T11:29:03;7.10;99.90
20246;DHT22;10281;54.406;18.556;2024-01-30T11:31:30;7.20;99.90
20246;DHT22;10281;54.406;18.556;2024-01-30T11:33:58;7.20;99.90
20246;DHT22;10281;54.406;18.556;2024-01-30T11:36:26;7.20;99.90
20246;DHT22;10281;54.406;18.556;2024-01-30T11:38:54;7.30;99.90
20246;DHT22;10281;54.406;18.556;2024-01-30T11:41:22;7.30;99.90
20246;DHT22;10281;54.406;18.556;2024-01-30T11:43:53;7.40;99.90
20246;DHT22;10281;54.406;18.556;2024-01-30T11:46:20;7.40;99.90
20246;DHT22;10281;54.406;18.556;2024-01-30T11:48:46;7.30;99.90
20246;DHT22;10281;54.406;18.556;2024-01-30T11:51:13;7.40;99.90
20246;DHT22;10281;54.406;18.556;2024-01-30T11:53:41;7.40;99.90
20246;DHT22;10281;54.406;18.556;2024-01-30T11:56:08;7.40;99.90
20246;DHT22;10281;54.406;18.556;2024-01-30T11:58:34;7.40;99.90
20246;DHT22;10281;54.406;18.556;2024-01-30T12:01:01;7.40;99.90
20246;DHT22;10281;54.406;18.556;2024-01-30T12:03:28;7.40;99.90
20246;DHT22;10281;54.406;18.556;2024-01-30T12:05:56;7.40;99.90
20246;DHT22;10281;54.406;18.556;2024-01-30T12:08:24;7.40;99.90
20246;DHT22;10281;54.406;18.556;2024-01-30T12:10:57;7.40;99.90
20246;DHT22;10281;54.406;18.556;2024-01-30T12:13:28;7.40;99.90
20246;DHT22;10281;54.406;18.556;2024-01-30T12:15:55;7.40;99.90
20246;DHT22;10281;54.406;18.556;2024-01-30T12:18:22;7.40;99.90
20246;DHT22;10281;54.406;18.556;2024-01-30T12:20:57;7.40;99.90
20246;DHT22;10281;54.406;18.556;2024-01-30T12:23:25;7.30;99.90
20246;DHT22;10281;54.406;18.556;2024-01-30T12:25:52;7.30;99.90
20246;DHT22;10281;54.406;18.556;2024-01-30T12:28:20;7.40;99.90
20246;DHT22;10281;54.406;18.556;2024-01-30T12:30:46;7.40;99.90
20246;DHT22;10281;54.406;18.556;2024-01-30T12:33:17;7.40;99.90
20246;DHT22;10281;54.406;18.556;2024-01-30T12:35:46;7.40;99.90
20246;DHT22;10281;54.406;18.556;2024-01-30T12:38:14;7.40;99.90
20246;DHT22;10281;54.406;18.556;2024-01-30T12:40:41;7.40;99.90
20246;DHT22;10281;54.406;18.556;2024-01-30T12:43:07;7.40;99.90
20246;DHT22;10281;54.406;18.556;2024-01-30T12:45:35;7.50;99.90
20246;DHT22;10281;54.406;18.556;2024-01-30T12:48:02;7.50;99.90
20246;DHT22;10281;54.406;18.556;2024-01-30T12:50:28;7.50;99.90
20246;DHT22;10281;54.406;18.556;2024-01-30T12:52:55;7.60;99.90
20246;DHT22;10281;54.406;18.556;2024-01-30T12:55:22;7.70;99.90
20246;DHT22;10281;54.406;18.556;2024-01-30T12:57:48;7.70;99.90
20246;DHT22;10281;54.406;18.556;2024-01-30T13:00:15;7.70;99.90
20246;DHT22;10281;54.406;18.556;2024-01-30T13:02:43;7.70;99.90
20246;DHT22;10281;54.406;18.556;2024-01-30T13:05:10;7.80;99.90
20246;DHT22;10281;54.406;18.556;2024-01-30T13:07:37;7.70;99.90
20246;DHT22;10281;54.406;18.556;2024-01-30T13:10:04;7.70;99.90
20246;DHT22;10281;54.406;18.556;2024-01-30T13:12:32;7.80;99.90
20246;DHT22;10281;54.406;18.556;2024-01-30T13:14:59;7.80;99.90
20246;DHT22;10281;54.406;18.556;2024-01-30T13:17:27;7.80;99.90
20246;DHT22;10281;54.406;18.556;2024-01-30T13:19:54;7.80;99.90
20246;DHT22;10281;54.406;18.556;2024-01-30T13:22:21;7.80;99.90
20246;DHT22;10281;54.406;18.556;2024-01-30T13:24:48;7.80;99.90
20246;DHT22;10281;54.406;18.556;2024-01-30T13:27:14;7.80;99.90
20246;DHT22;10281;54.406;18.556;2024-01-30T13:29:41;7.80;99.90
20246;DHT22;10281;54.406;18.556;2024-01-30T13:32:07;7.70;99.90
20246;DHT22;10281;54.406;18.556;2024-01-30T13:34:34;7.70;99.90
20246;DHT22;10281;54.406;18.556;2024-01-30T13:37:01;7.60;99.90
20246;DHT22;10281;54.406;18.556;2024-01-30T13:39:28;7.70;99.90
20246;DHT22;10281;54.406;18.556;2024-01-30T13:41:55;7.60;99.90
20246;DHT22;10281;54.406;18.556;2024-01-30T13:44:21;7.70;99.90
20246;DHT22;10281;54.406;18.556;2024-01-30T13:46:48;7.60;99.90
20246;DHT22;10281;54.406;18.556;2024-01-30T13:49:15;7.60;99.90
20246;DHT22;10281;54.406;18.556;2024-01-30T13:51:41;7.50;99.90
20246;DHT22;10281;54.406;18.556;2024-01-30T13:54:08;7.50;99.90
20246;DHT22;10281;54.406;18.556;2024-01-30T13:56:35;7.50;99.90
20246;DHT22;10281;54.406;18.556;2024-01-30T13:59:02;7.50;99.90
20246;DHT22;10281;54.406;18.556;2024-01-30T14:01:32;7.50;99.90
20246;DHT22;10281;54.406;18.556;2024-01-30T14:03:58;7.50;99.90
20246;DHT22;10281;54.406;18.556;2024-01-30T14:06:25;7.40;99.90
20246;DHT22;10281;54.406;18.556;2024-01-30T14:08:52;7.40;99.90
20246;DHT22;10281;54.406;18.556;2024-01-30T14:11:18;7.40;99.90
20246;DHT22;10281;54.406;18.556;2024-01-30T14:13:45;7.30;99.90
20246;DHT22;10281;54.406;18.556;2024-01-30T14:16:11;7.20;99.90
20246;DHT22;10281;54.406;18.556;2024-01-30T14:18:38;7.20;99.90
20246;DHT22;10281;54.406;18.556;2024-01-30T14:21:06;7.20;99.90
20246;DHT22;10281;54.406;18.556;2024-01-30T14:23:34;7.20;99.90
20246;DHT22;10281;54.406;18.556;2024-01-30T14:26:00;7.10;99.90
20246;DHT22;10281;54.406;18.556;2024-01-30T14:28:27;7.10;99.90
20246;DHT22;10281;54.406;18.556;2024-01-30T14:30:54;7.10;99.90
20246;DHT22;10281;54.406;18.556;2024-01-30T14:33:20;7.00;99.90
20246;DHT22;10281;54.406;18.556;2024-01-30T14:35:47;7.00;99.90
20246;DHT22;10281;54.406;18.556;2024-01-30T14:38:14;7.00;99.90
20246;DHT22;10281;54.406;18.556;2024-01-30T14:40:41;7.00;99.90
20246;DHT22;10281;54.406;18.556;2024-01-30T14:43:08;6.90;99.90
20246;DHT22;10281;54.406;18.556;2024-01-30T14:45:35;6.80;99.90
20246;DHT22;10281;54.406;18.556;2024-01-30T14:48:01;6.80;99.90
20246;DHT22;10281;54.406;18.556;2024-01-30T14:50:28;6.70;99.90
20246;DHT22;10281;54.406;18.556;2024-01-30T14:52:54;6.70;99.90
20246;DHT22;10281;54.406;18.556;2024-01-30T14:55:21;6.60;99.90
20246;DHT22;10281;54.406;18.556;2024-01-30T14:57:48;6.60;99.90
20246;DHT22;10281;54.406;18.556;2024-01-30T15:00:16;6.50;99.90
20246;DHT22;10281;54.406;18.556;2024-01-30T15:02:42;6.50;99.90
20246;DHT22;10281;54.406;18.556;2024-01-30T15:05:09;6.40;99.90
20246;DHT22;10281;54.406;18.556;2024-01-30T15:07:37;6.40;99.90
20246;DHT22;10281;54.406;18.556;2024-01-30T15:10:05;6.30;99.90
20246;DHT22;10281;54.406;18.556;2024-01-30T15:12:32;6.30;99.90
20246;DHT22;10281;54.406;18.556;2024-01-30T15:14:58;6.30;99.90
20246;DHT22;10281;54.406;18.556;2024-01-30T15:17:25;6.20;99.90
20246;DHT22;10281;54.406;18.556;2024-01-30T15:19:53;6.20;99.90
20246;DHT22;10281;54.406;18.556;2024-01-30T15:22:19;6.10;99.90
20246;DHT22;10281;54.406;18.556;2024-01-30T15:24:46;6.10;99.90
20246;DHT22;10281;54.406;18.556;2024-01-30T15:27:12;6.00;99.90
20246;DHT22;10281;54.406;18.556;2024-01-30T15:29:39;5.90;99.90